Time;durP1;ratioP1;P1;durP2;ratioP2;P2;SDS_P1;SDS_P2;PMS_P1;PMS_P2;Temp;Humidity;BMP_temperature;BMP_pressure;BME280_temperature;BME280_humidity;BME280_pressure;Samples;Min_cycle;Max_cycle;Signal;HPM_P1;HPM_P2
2021/04/01 00:00:47;;;;;;;14.90;7.28;;;;;;;17.03;56.67;100877.56;5009457;28;20042;-86
2021/04/01 00:03:14;;;;;;;18.45;8.27;;;;;;;16.95;56.76;100873.94;4994094;28;20023;-86
2021/04/01 00:05:39;;;;;;;14.30;8.48;;;;;;;16.86;56.44;100878.19;5004130;28;20045;-86
2021/04/01 00:08:05;;;;;;;12.43;6.75;;;;;;;16.80;55.97;100873.41;5013770;28;20026;-87
2021/04/01 00:10:36;;;;;;;17.25;7.80;;;;;;;16.81;54.48;100875.97;5011635;28;20045;-86
2021/04/01 00:13:02;;;;;;;12.77;6.95;;;;;;;16.82;54.03;100879.44;5011669;28;20392;-86
2021/04/01 00:15:28;;;;;;;22.73;8.80;;;;;;;16.63;55.67;100877.53;5012016;28;20061;-86
2021/04/01 00:17:54;;;;;;;18.38;7.85;;;;;;;16.78;55.37;100880.66;5013349;28;20049;-86
2021/04/01 00:20:19;;;;;;;20.48;7.38;;;;;;;16.80;55.77;100884.00;5013143;28;20488;-86
2021/04/01 00:22:44;;;;;;;13.65;7.53;;;;;;;16.73;55.73;100878.41;5013156;28;20121;-86
2021/04/01 00:25:13;;;;;;;11.27;7.32;;;;;;;16.76;56.26;100878.13;5013521;28;20038;-86
2021/04/01 00:27:39;;;;;;;17.35;7.50;;;;;;;16.75;55.98;100875.63;5013044;28;20080;-87
2021/04/01 00:30:06;;;;;;;12.20;7.45;;;;;;;16.71;56.22;100884.81;5011835;28;20029;-86
2021/04/01 00:32:31;;;;;;;15.18;7.10;;;;;;;16.63;57.02;100873.06;5012936;28;20045;-87
2021/04/01 00:34:57;;;;;;;12.82;7.70;;;;;;;16.64;56.86;100876.53;5013099;28;20030;-86
2021/04/01 00:37:22;;;;;;;15.52;8.27;;;;;;;16.53;57.62;100876.63;5012788;28;20018;-86
2021/04/01 00:39:48;;;;;;;17.50;10.40;;;;;;;16.48;57.19;100869.06;5012773;28;20129;-86
2021/04/01 00:42:14;;;;;;;17.23;9.43;;;;;;;16.45;57.41;100874.66;5012831;28;20392;-86
2021/04/01 00:44:39;;;;;;;15.02;9.57;;;;;;;16.46;57.68;100874.50;5015404;28;20097;-86
2021/04/01 00:47:09;;;;;;;13.02;8.40;;;;;;;16.54;57.52;100876.50;5018889;28;20038;-86
2021/04/01 00:49:39;;;;;;;16.63;10.10;;;;;;;16.49;58.32;100875.19;5021224;28;20030;-86
2021/04/01 00:52:07;;;;;;;20.23;10.50;;;;;;;16.48;57.96;100879.66;5012713;28;20544;-87
2021/04/01 00:54:32;;;;;;;19.52;9.63;;;;;;;16.49;57.78;100876.06;5012805;28;20461;-86
2021/04/01 00:56:58;;;;;;;22.40;11.60;;;;;;;16.41;58.63;100883.81;5011439;28;20037;-86
2021/04/01 00:59:25;;;;;;;19.15;11.45;;;;;;;16.25;59.07;100887.78;5012788;28;20026;-86
2021/04/01 01:01:52;;;;;;;15.65;9.52;;;;;;;16.37;58.72;100891.19;5012474;28;20621;-86
2021/04/01 01:04:18;;;;;;;17.13;10.02;;;;;;;16.37;58.51;100892.97;5012665;28;20029;-86
2021/04/01 01:06:44;;;;;;;19.95;11.02;;;;;;;16.40;58.43;100890.91;5013075;28;20396;-86
2021/04/01 01:09:10;;;;;;;15.65;10.10;;;;;;;16.42;58.32;100898.75;5012103;28;20059;-86
2021/04/01 01:11:37;;;;;;;19.60;9.82;;;;;;;16.42;57.90;100901.41;5012643;28;20058;-86
2021/04/01 01:14:04;;;;;;;16.60;9.88;;;;;;;16.40;58.35;100906.00;5012498;28;20030;-86
2021/04/01 01:16:31;;;;;;;16.92;9.90;;;;;;;16.41;58.84;100911.16;5012615;28;20026;-86
2021/04/01 01:18:56;;;;;;;14.88;10.18;;;;;;;16.49;58.29;100907.88;5010856;28;20457;-86
2021/04/01 01:21:22;;;;;;;19.45;10.60;;;;;;;16.43;58.73;100911.03;5012378;28;20057;-86
2021/04/01 01:23:50;;;;;;;12.38;10.68;;;;;;;16.49;58.50;100921.13;5012370;28;20049;-86
2021/04/01 01:26:15;;;;;;;19.40;10.55;;;;;;;16.50;58.01;100912.19;5011201;28;20045;-86
2021/04/01 01:28:41;;;;;;;15.15;9.70;;;;;;;16.55;57.33;100917.94;5012273;28;20030;-86
2021/04/01 01:31:06;;;;;;;17.27;9.88;;;;;;;16.62;57.19;100916.44;5012417;28;20030;-86
2021/04/01 01:33:39;;;;;;;14.68;9.93;;;;;;;16.57;57.60;100904.56;5012432;28;20141;-87
2021/04/01 01:36:05;;;;;;;19.70;11.35;;;;;;;16.60;57.65;100906.94;5012403;28;20045;-86
2021/04/01 01:38:30;;;;;;;17.45;10.82;;;;;;;16.52;58.29;100891.69;5012236;28;20519;-86
2021/04/01 01:40:55;;;;;;;18.60;11.80;;;;;;;16.56;57.91;100898.41;5012169;28;20038;-86
2021/04/01 01:43:21;;;;;;;18.95;12.68;;;;;;;16.51;58.68;100895.31;5012183;28;20061;-86
2021/04/01 01:45:46;;;;;;;26.73;12.80;;;;;;;16.46;58.78;100901.00;5012603;28;20367;-86
2021/04/01 01:48:12;;;;;;;25.45;13.18;;;;;;;16.26;59.56;100894.75;5012069;28;20387;-86
2021/04/01 01:50:39;;;;;;;21.58;12.70;;;;;;;16.43;58.85;100897.78;5012188;28;20026;-86
2021/04/01 01:53:06;;;;;;;18.90;12.15;;;;;;;16.46;58.84;100908.94;5011901;28;20372;-86
2021/04/01 01:55:32;;;;;;;21.55;13.55;;;;;;;16.40;59.61;100898.03;5012099;28;20033;-86
2021/04/01 01:57:58;;;;;;;24.58;14.27;;;;;;;16.35;58.89;100897.56;5011952;28;20076;-87
2021/04/01 02:00:42;;;;;;;20.77;15.38;;;;;;;16.50;59.39;100898.09;5011945;28;20419;-86
2021/04/01 02:03:10;;;;;;;24.30;14.88;;;;;;;16.50;59.39;100898.94;5011844;28;20391;-87
2021/04/01 02:05:36;;;;;;;22.88;15.73;;;;;;;16.30;60.58;100897.97;5011932;28;20041;-86
2021/04/01 02:08:03;;;;;;;22.45;16.25;;;;;;;16.34;60.40;100910.00;5027417;23;20034;-87
2021/04/01 02:10:34;;;;;;;25.73;14.70;;;;;;;16.37;59.85;100898.28;5016001;28;20066;-86
2021/04/01 02:13:00;;;;;;;30.55;15.43;;;;;;;16.31;60.45;100906.75;5010366;28;20039;-88
2021/04/01 02:15:47;;;;;;;27.50;15.65;;;;;;;16.42;60.57;100910.19;4993965;28;20042;-89
2021/04/01 02:18:19;;;;;;;23.35;14.57;;;;;;;16.51;59.95;100910.38;4993674;28;20022;-88
2021/04/01 02:20:49;;;;;;;18.98;13.75;;;;;;;16.51;60.07;100905.94;4993006;28;20031;-88
2021/04/01 02:23:14;;;;;;;29.77;16.15;;;;;;;16.50;60.36;100909.53;4997100;28;20026;-88
2021/04/01 02:25:41;;;;;;;25.58;15.15;;;;;;;16.52;60.22;100910.25;4996918;28;20495;-88
2021/04/01 02:28:07;;;;;;;24.15;14.10;;;;;;;16.57;59.38;100910.69;4997238;28;20026;-88
2021/04/01 02:30:33;;;;;;;24.73;14.85;;;;;;;16.61;58.81;100916.59;4995706;28;20026;-88
2021/04/01 02:32:59;;;;;;;26.33;17.05;;;;;;;16.63;58.62;100904.03;4996645;28;20102;-89
2021/04/01 02:35:24;;;;;;;24.98;15.73;;;;;;;16.79;57.92;100909.69;4997144;28;20109;-88
2021/04/01 02:37:50;;;;;;;20.17;14.75;;;;;;;16.88;58.72;100917.84;4997956;28;20026;-88
2021/04/01 02:40:15;;;;;;;23.63;16.15;;;;;;;16.88;58.43;100921.34;4996427;28;20488;-88
2021/04/01 02:42:41;;;;;;;22.50;14.25;;;;;;;16.90;58.17;100921.22;4998287;28;20042;-88
2021/04/01 02:45:09;;;;;;;22.42;14.48;;;;;;;16.88;58.49;100921.34;4998265;28;20380;-88
2021/04/01 02:47:34;;;;;;;18.25;13.73;;;;;;;16.82;58.92;100913.91;4996071;28;20081;-88
2021/04/01 02:50:00;;;;;;;26.67;15.70;;;;;;;16.72;59.15;100918.31;4996675;28;20030;-89
2021/04/01 02:52:25;;;;;;;28.63;17.25;;;;;;;16.60;59.44;100905.13;4996470;28;20126;-89
2021/04/01 02:54:50;;;;;;;24.85;16.70;;;;;;;16.68;59.50;100922.19;4996736;28;20029;-89
2021/04/01 02:57:18;;;;;;;24.83;16.38;;;;;;;16.76;59.46;100940.94;4995550;28;20113;-88
2021/04/01 02:59:47;;;;;;;25.00;18.77;;;;;;;16.55;60.54;100941.81;4996674;28;20030;-89
2021/04/01 03:02:14;;;;;;;31.30;16.88;;;;;;;16.71;59.97;100948.47;4996665;28;20411;-88
2021/04/01 03:04:40;;;;;;;25.55;16.27;;;;;;;16.75;60.09;100949.88;4996354;28;20101;-88
2021/04/01 03:07:05;;;;;;;21.58;16.02;;;;;;;16.77;59.67;100954.06;4996888;28;20058;-88
2021/04/01 03:09:31;;;;;;;26.48;14.93;;;;;;;16.79;58.94;100943.34;4994916;28;20350;-88
2021/04/01 03:11:57;;;;;;;30.08;17.63;;;;;;;16.79;58.55;100948.66;4996238;28;20030;-88
2021/04/01 03:14:22;;;;;;;29.45;16.77;;;;;;;16.75;59.04;100950.72;4995908;28;20026;-89
2021/04/01 03:16:47;;;;;;;23.25;15.98;;;;;;;16.55;59.61;100941.81;4994162;28;20495;-88
2021/04/01 03:19:13;;;;;;;28.60;18.20;;;;;;;16.37;60.48;100935.38;4995400;28;20022;-88
2021/04/01 03:21:38;;;;;;;33.83;20.30;;;;;;;16.12;61.00;100953.34;4995456;28;20037;-88
2021/04/01 03:24:04;;;;;;;35.22;21.73;;;;;;;15.96;62.75;100942.34;4995577;28;20035;-88
2021/04/01 03:26:30;;;;;;;31.40;21.70;;;;;;;15.71;63.47;100932.88;4996039;28;20037;-88
2021/04/01 03:28:56;;;;;;;42.92;24.48;;;;;;;15.92;63.51;100938.25;4995716;28;20284;-88
2021/04/01 03:31:22;;;;;;;33.45;24.48;;;;;;;15.58;65.81;100946.25;4995183;28;20022;-88
2021/04/01 03:33:47;;;;;;;38.63;24.67;;;;;;;15.39;66.86;100946.91;4995666;28;20499;-88
2021/04/01 03:36:13;;;;;;;45.05;23.42;;;;;;;15.26;67.75;100950.53;4995163;28;20053;-88
2021/04/01 03:38:38;;;;;;;36.78;25.08;;;;;;;15.54;66.60;100939.50;4995250;28;20018;-88
2021/04/01 03:41:04;;;;;;;36.75;24.77;;;;;;;15.39;67.32;100938.97;4995064;28;20162;-88
2021/04/01 03:43:29;;;;;;;38.00;24.08;;;;;;;15.26;68.17;100947.00;4995474;28;20212;-88
2021/04/01 03:45:55;;;;;;;33.95;25.17;;;;;;;15.13;68.88;100964.84;4994786;28;20049;-89
2021/04/01 03:48:21;;;;;;;38.78;25.60;;;;;;;15.12;69.50;100968.41;4994759;28;20539;-88
2021/04/01 03:50:46;;;;;;;51.70;26.98;;;;;;;14.82;69.81;100946.88;4994859;28;20026;-88
2021/04/01 03:53:12;;;;;;;40.22;25.67;;;;;;;15.16;69.02;100965.41;4993390;28;20384;-89
2021/04/01 03:55:40;;;;;;;39.40;27.02;;;;;;;15.01;70.00;100964.81;4994689;28;20033;-87
2021/04/01 04:00:37;;;;;;;48.58;27.58;;;;;;;14.74;70.98;100965.13;4994221;28;20022;-87
2021/04/01 04:05:44;;;;;;;48.38;28.05;;;;;;;14.90;70.55;100969.25;4994654;28;20387;-87
2021/04/01 04:13:45;;;;;;;48.70;29.63;;;;;;;14.76;71.01;100975.59;4993858;28;20400;-87
2021/04/01 04:15:59;;;;;;;55.45;32.00;;;;;;;14.64;71.17;100967.63;4995453;28;20042;-88
2021/04/01 04:18:24;;;;;;;52.28;33.47;;;;;;;14.54;71.71;100969.28;4993477;28;20034;-87
2021/04/01 04:20:50;;;;;;;62.50;35.60;;;;;;;14.23;72.13;100970.72;4993920;28;20031;-88
2021/04/01 04:23:17;;;;;;;59.70;34.58;;;;;;;14.51;70.90;100982.69;4993783;28;20058;-88
2021/04/01 04:25:43;;;;;;;69.45;32.80;;;;;;;14.09;71.86;100983.13;4992269;28;20026;-88
2021/04/01 04:30:52;;;;;;;69.80;35.58;;;;;;;13.81;72.19;100981.69;4993592;28;20041;-88
2021/04/01 04:33:18;;;;;;;60.78;35.38;;;;;;;13.97;71.12;100999.88;4993504;28;20026;-88
2021/04/01 04:35:43;;;;;;;64.25;35.03;;;;;;;13.75;70.76;100997.97;4992956;28;20041;-89
2021/04/01 04:38:08;;;;;;;58.35;35.35;;;;;;;13.47;71.12;101005.22;4992113;28;20022;-88
2021/04/01 04:40:34;;;;;;;61.92;35.13;;;;;;;13.47;71.36;101014.94;4993392;28;20105;-87
2021/04/01 04:43:00;;;;;;;56.38;33.50;;;;;;;13.53;70.68;101024.22;4993200;28;20034;-88
2021/04/01 04:45:25;;;;;;;59.72;34.83;;;;;;;13.33;70.98;100999.19;4992756;28;20105;-88
2021/04/01 04:47:51;;;;;;;66.45;35.63;;;;;;;13.50;70.60;101019.97;4993458;28;20152;-87
2021/04/01 04:50:16;;;;;;;58.95;35.08;;;;;;;13.17;72.50;101017.84;4993510;28;20513;-87
2021/04/01 04:52:41;;;;;;;60.45;34.65;;;;;;;13.65;69.95;101008.34;4993517;28;20026;-87
2021/04/01 04:55:09;;;;;;;61.42;34.30;;;;;;;13.59;70.39;101018.50;4993582;28;20421;-87
2021/04/01 04:57:39;;;;;;;64.07;35.65;;;;;;;13.33;71.64;101025.56;4993409;28;20033;-88
2021/04/01 05:05:26;;;;;;;58.90;32.80;;;;;;;13.08;71.32;101049.19;4993265;28;20034;-87
2021/04/01 05:07:51;;;;;;;65.70;33.42;;;;;;;12.93;72.06;101041.47;4992272;28;20030;-88
2021/04/01 05:10:16;;;;;;;54.30;32.65;;;;;;;13.03;71.60;101051.31;4991897;28;20030;-88
2021/04/01 05:12:43;;;;;;;52.08;32.05;;;;;;;13.12;70.29;101062.16;4992980;28;20097;-88
2021/04/01 05:15:09;;;;;;;52.97;32.75;;;;;;;13.07;70.27;101065.09;4993180;28;20022;-89
2021/04/01 05:17:35;;;;;;;57.22;31.98;;;;;;;12.69;71.97;101056.19;4991950;28;20027;-87
2021/04/01 05:20:04;;;;;;;52.30;29.75;;;;;;;12.66;72.98;101061.66;4992578;28;20117;-88
2021/04/01 05:25:31;;;;;;;53.67;32.20;;;;;;;12.90;71.52;101076.78;5011763;28;20484;-88
2021/04/01 05:28:02;;;;;;;50.85;29.50;;;;;;;12.98;70.80;101076.28;4997132;28;20472;-87
2021/04/01 05:30:27;;;;;;;54.55;31.52;;;;;;;13.40;69.31;101092.78;4993003;28;20054;-89
2021/04/01 05:32:53;;;;;;;55.72;31.77;;;;;;;12.98;70.05;101092.94;4992652;28;20115;-88
2021/04/01 05:35:19;;;;;;;46.40;30.05;;;;;;;12.87;70.50;101105.97;4991711;28;20109;-87
2021/04/01 05:37:45;;;;;;;49.38;30.25;;;;;;;12.81;71.19;101111.66;4991370;28;20030;-87
2021/04/01 05:40:13;;;;;;;55.92;32.13;;;;;;;12.87;70.45;101103.34;4991490;28;20035;-87
2021/04/01 05:42:43;;;;;;;51.78;29.77;;;;;;;12.68;71.09;101111.63;4992408;28;20085;-88
2021/04/01 06:06:26;;;;;;;43.03;23.70;;;;;;;13.01;69.42;101150.75;4996884;28;20036;-89
2021/04/01 06:08:57;;;;;;;42.60;25.40;;;;;;;12.77;70.08;101154.97;4997095;28;20034;-88
2021/04/01 06:11:23;;;;;;;43.85;25.58;;;;;;;12.95;69.76;101156.41;4996411;28;20032;-87
2021/04/01 06:14:13;;;;;;;44.45;25.17;;;;;;;13.13;69.32;101159.63;4996085;28;20120;-88
2021/04/01 06:16:41;;;;;;;35.75;21.10;;;;;;;12.61;70.15;101137.53;4996153;28;20049;-88
2021/04/01 06:19:15;;;;;;;36.42;20.85;;;;;;;12.58;70.54;101158.81;4996054;28;20061;-89
2021/04/01 06:21:43;;;;;;;35.35;19.67;;;;;;;12.33;71.25;101164.78;4996118;28;20077;-89
2021/04/01 06:24:21;;;;;;;39.05;18.67;;;;;;;12.74;69.50;101160.44;4998257;28;20091;-88
2021/04/01 06:26:51;;;;;;;29.27;17.80;;;;;;;12.75;68.75;101154.22;4994910;28;20030;-88
2021/04/01 06:29:19;;;;;;;29.55;17.52;;;;;;;12.69;68.78;101147.56;4995070;28;20380;-87
2021/04/01 06:31:46;;;;;;;27.92;17.15;;;;;;;12.32;69.84;101141.19;4997841;28;20026;-88
2021/04/01 06:34:13;;;;;;;23.85;15.80;;;;;;;12.47;69.61;101161.28;4999409;28;20038;-88
2021/04/01 06:36:54;;;;;;;29.65;16.17;;;;;;;12.47;70.15;101171.81;4995515;28;20535;-88
2021/04/01 06:39:22;;;;;;;31.58;14.85;;;;;;;12.16;71.03;101155.31;4993959;28;20033;-89
2021/04/01 06:41:51;;;;;;;24.27;15.73;;;;;;;12.43;69.87;101157.16;4994983;28;20026;-89
2021/04/01 06:44:28;;;;;;;30.02;15.57;;;;;;;12.55;69.95;101187.97;4979403;28;20526;-88
2021/04/01 06:47:03;;;;;;;31.17;15.75;;;;;;;12.28;70.42;101173.00;4994758;28;20026;-90
2021/04/01 06:52:18;;;;;;;27.30;15.55;;;;;;;12.74;69.33;101207.88;4990665;28;20235;-89
2021/04/01 06:54:58;;;;;;;32.53;15.73;;;;;;;12.69;68.85;101190.56;4995265;28;20061;-91
2021/04/01 06:57:34;;;;;;;30.55;18.90;;;;;;;12.73;68.81;101208.81;4994693;28;20027;-87
2021/04/01 07:02:53;;;;;;;25.70;14.85;;;;;;;13.28;67.11;101226.31;4999170;28;20377;-88
2021/04/01 07:07:57;;;;;;;20.67;14.65;;;;;;;13.52;66.29;101244.13;5008663;23;20476;-90
2021/04/01 07:10:40;;;;;;;24.33;15.55;;;;;;;13.31;66.94;101249.03;5012324;28;20034;-89
2021/04/01 07:13:08;;;;;;;23.35;14.60;;;;;;;13.57;65.73;101260.50;5012565;28;20026;-87
2021/04/01 07:15:39;;;;;;;24.33;13.68;;;;;;;13.72;65.26;101255.97;5013879;28;20030;-86
2021/04/01 07:18:25;;;;;;;27.92;14.68;;;;;;;13.57;66.42;101260.50;5008563;28;20018;-87
2021/04/01 07:48:11;;;;;;;22.10;12.90;;;;;;;13.28;66.12;101289.59;4994641;28;20042;-86
2021/04/01 07:50:40;;;;;;;27.85;12.48;;;;;;;13.21;65.71;101296.22;4994476;28;20026;-87
2021/04/01 07:53:06;;;;;;;30.20;11.48;;;;;;;13.54;64.93;101300.28;4977060;28;20031;-86
2021/04/01 07:56:15;;;;;;;27.98;11.98;;;;;;;13.87;63.88;101303.28;4994219;28;20033;-86
2021/04/01 08:06:08;;;;;;;24.35;11.00;;;;;;;14.26;62.98;101304.16;4994260;28;20060;-86
2021/04/01 08:08:44;;;;;;;31.85;13.48;;;;;;;14.41;63.03;101312.81;4995254;28;20113;-86
2021/04/01 08:11:10;;;;;;;26.48;11.10;;;;;;;14.46;61.54;101307.22;4996744;28;20023;-86
2021/04/01 08:13:41;;;;;;;21.35;10.15;;;;;;;14.88;59.98;101318.38;4993934;28;20089;-86
2021/04/01 08:16:10;;;;;;;22.58;11.20;;;;;;;14.92;59.69;101319.84;4993806;28;20023;-86
2021/04/01 08:18:41;;;;;;;27.52;10.85;;;;;;;14.61;60.39;101311.47;4993876;28;20213;-86
2021/04/01 08:21:10;;;;;;;20.17;10.45;;;;;;;14.07;61.53;101322.22;4993775;28;20026;-87
2021/04/01 08:23:42;;;;;;;19.60;10.20;;;;;;;14.64;59.93;101319.16;4993799;28;20027;-86
2021/04/01 08:33:55;;;;;;;23.80;9.90;;;;;;;15.61;57.36;101314.78;4993513;28;20030;-89
2021/04/01 08:36:22;;;;;;;23.40;10.20;;;;;;;16.17;56.06;101315.91;4993508;28;20026;-86
2021/04/01 08:38:48;;;;;;;25.92;10.45;;;;;;;16.12;55.00;101299.56;4993388;28;20208;-86
2021/04/01 08:41:43;;;;;;;21.90;9.55;;;;;;;16.35;54.28;101314.50;4993379;28;20026;-86
2021/04/01 08:44:30;;;;;;;21.17;9.90;;;;;;;16.63;53.06;101313.19;4993491;28;20022;-85
2021/04/01 08:47:22;;;;;;;21.85;9.05;;;;;;;16.63;52.13;101313.19;4993501;28;20106;-86
2021/04/01 08:50:00;;;;;;;18.08;9.45;;;;;;;16.56;52.49;101314.63;4992022;28;20052;-86
2021/04/01 08:52:43;;;;;;;24.33;10.00;;;;;;;16.90;51.76;101298.69;4993271;28;20034;-86
2021/04/01 08:55:17;;;;;;;19.33;8.55;;;;;;;17.25;50.69;101311.75;4993296;28;20023;-86
2021/04/01 08:58:25;;;;;;;23.63;9.95;;;;;;;17.45;50.34;101312.78;4993200;28;20153;-86
2021/04/01 09:01:01;;;;;;;14.75;8.35;;;;;;;17.36;49.97;101310.06;4993134;28;20026;-87
2021/04/01 09:03:36;;;;;;;17.23;8.32;;;;;;;17.38;50.68;101308.97;4993263;28;20030;-86
2021/04/01 09:06:03;;;;;;;18.48;7.93;;;;;;;17.45;49.41;101320.75;4993123;28;20504;-87
2021/04/01 09:08:33;;;;;;;16.02;7.90;;;;;;;17.99;48.44;101323.41;5017974;23;20077;-88
2021/04/01 09:11:00;;;;;;;14.20;7.93;;;;;;;18.11;48.42;101322.38;5011474;28;20527;-89
2021/04/01 09:13:32;;;;;;;21.02;8.48;;;;;;;18.26;47.11;101309.56;5011615;28;20164;-88
2021/04/01 09:18:29;;;;;;;20.73;8.45;;;;;;;17.23;49.58;101320.81;5012237;28;20109;-87
2021/04/01 09:21:00;;;;;;;17.17;7.00;;;;;;;18.40;47.41;101334.97;5012343;28;20026;-88
2021/04/01 09:23:37;;;;;;;16.42;7.93;;;;;;;18.88;46.17;101336.16;5012443;28;20030;-88
2021/04/01 09:26:08;;;;;;;21.42;8.02;;;;;;;18.65;46.57;101341.66;5011042;28;20481;-88
2021/04/01 09:28:41;;;;;;;14.35;7.05;;;;;;;19.27;45.53;101346.91;5010901;28;20427;-88
2021/04/01 09:31:08;;;;;;;18.83;8.18;;;;;;;19.09;45.79;101338.75;5011933;28;20026;-88
2021/04/01 09:33:35;;;;;;;15.43;8.20;;;;;;;19.33;45.25;101328.56;5010966;28;20022;-88
2021/04/01 09:36:19;;;;;;;20.00;8.50;;;;;;;19.58;44.51;101343.13;5012615;28;20084;-88
2021/04/01 09:39:14;;;;;;;18.77;7.80;;;;;;;19.65;44.73;101351.44;5012325;28;20026;-88
2021/04/01 09:41:40;;;;;;;16.90;8.38;;;;;;;19.91;44.52;101348.22;5011813;28;20037;-89
2021/04/01 09:44:08;;;;;;;21.90;7.82;;;;;;;19.36;44.83;101356.72;5016469;28;20029;-88
2021/04/01 09:46:36;;;;;;;22.63;8.50;;;;;;;19.91;43.43;101364.22;5015648;28;20118;-89
2021/04/01 09:49:11;;;;;;;20.55;7.70;;;;;;;20.13;42.42;101365.72;5011158;28;20030;-88
2021/04/01 09:51:40;;;;;;;15.05;7.32;;;;;;;19.74;43.58;101371.91;5010932;28;20025;-89
2021/04/01 09:54:14;;;;;;;20.67;8.10;;;;;;;19.30;44.27;101375.94;5012146;28;20124;-89
2021/04/01 09:56:40;;;;;;;21.45;8.13;;;;;;;19.58;44.08;101371.59;5012097;28;20261;-88
2021/04/01 09:59:05;;;;;;;16.83;8.07;;;;;;;20.41;42.88;101378.13;5010656;28;20640;-88
2021/04/01 10:01:33;;;;;;;23.27;8.77;;;;;;;20.46;41.25;101385.72;5012017;28;20084;-88
2021/04/01 10:04:01;;;;;;;15.75;8.02;;;;;;;19.85;43.31;101399.44;5010856;28;20427;-89
2021/04/01 10:06:39;;;;;;;17.38;7.57;;;;;;;20.45;41.71;101384.03;5011924;28;20033;-88
2021/04/01 10:09:15;;;;;;;18.85;8.60;;;;;;;20.41;41.68;101390.63;5024782;23;20041;-86
2021/04/01 10:11:43;;;;;;;16.88;8.32;;;;;;;20.55;42.27;101392.81;5012092;28;20030;-86
2021/04/01 10:14:11;;;;;;;20.00;8.23;;;;;;;20.35;42.51;101392.03;5011798;28;20029;-87
2021/04/01 10:16:50;;;;;;;17.63;7.63;;;;;;;20.66;41.23;101383.03;5011970;28;20113;-86
2021/04/01 10:19:15;;;;;;;20.02;8.15;;;;;;;20.54;42.14;101385.81;4992209;28;20022;-86
2021/04/01 10:21:45;;;;;;;19.77;8.30;;;;;;;20.01;44.10;101386.38;4992177;28;20032;-86
2021/04/01 10:24:21;;;;;;;24.30;8.35;;;;;;;21.09;41.84;101385.06;4992316;28;20053;-86
2021/04/01 10:26:49;;;;;;;20.80;8.07;;;;;;;20.57;41.66;101379.34;4992115;28;20073;-86
2021/04/01 10:29:21;;;;;;;14.75;8.15;;;;;;;20.07;43.35;101388.44;4992106;28;20018;-86
2021/04/01 10:31:51;;;;;;;17.38;8.90;;;;;;;19.42;43.45;101388.97;4990900;28;20038;-86
2021/04/01 10:34:35;;;;;;;22.75;9.57;;;;;;;19.57;42.36;101392.09;4992003;28;20066;-86
2021/04/01 10:37:06;;;;;;;16.05;7.95;;;;;;;19.16;43.66;101403.78;4992137;28;20137;-86
2021/04/01 10:39:34;;;;;;;22.40;9.93;;;;;;;18.97;43.49;101389.41;4992143;28;20476;-86
2021/04/01 10:42:03;;;;;;;27.67;9.40;;;;;;;19.37;43.35;101396.56;4992570;28;20030;-86
2021/04/01 10:44:30;;;;;;;19.60;8.80;;;;;;;19.68;43.07;101396.44;4994188;28;20026;-89
2021/04/01 10:46:58;;;;;;;21.00;9.30;;;;;;;20.89;41.62;101384.31;4995502;28;20026;-88
2021/04/01 10:49:30;;;;;;;22.40;10.05;;;;;;;20.72;42.57;101388.59;4995354;28;20050;-88
2021/04/01 10:51:58;;;;;;;24.05;9.40;;;;;;;21.42;40.91;101396.09;4995518;28;20034;-89
2021/04/01 10:54:41;;;;;;;25.75;8.85;;;;;;;21.50;40.54;101404.22;4995343;28;20060;-86
2021/04/01 10:57:13;;;;;;;20.40;8.70;;;;;;;21.98;38.84;101407.50;4995344;28;20049;-86
2021/04/01 10:59:45;;;;;;;22.40;8.77;;;;;;;21.53;39.23;101397.75;4995113;28;20026;-86
2021/04/01 11:02:19;;;;;;;19.83;8.38;;;;;;;21.07;39.97;101386.19;4995116;28;20050;-86
2021/04/01 11:04:54;;;;;;;21.38;8.70;;;;;;;22.01;38.52;101399.16;4995103;28;20030;-87
2021/04/01 11:07:21;;;;;;;21.08;8.45;;;;;;;21.85;39.07;101391.84;4995556;28;20081;-86
2021/04/01 11:09:48;;;;;;;22.35;8.18;;;;;;;22.06;38.47;101410.25;4994970;28;20047;-86
2021/04/01 11:12:20;;;;;;;16.40;8.15;;;;;;;21.38;38.79;101410.75;4993798;28;20500;-89
2021/04/01 11:15:00;;;;;;;20.55;7.70;;;;;;;21.32;38.31;101406.00;4995069;28;20030;-88
2021/04/01 11:17:30;;;;;;;22.20;8.50;;;;;;;21.60;38.93;101409.50;4995014;28;20468;-88
2021/04/01 11:19:59;;;;;;;18.58;8.27;;;;;;;21.24;38.74;101406.75;4994983;28;20033;-89
2021/04/01 11:22:24;;;;;;;15.80;8.57;;;;;;;21.39;39.06;101409.75;4994749;28;20109;-86
2021/04/01 11:24:50;;;;;;;15.65;7.53;;;;;;;21.69;38.26;101403.25;4994687;28;20105;-86
2021/04/01 11:27:20;;;;;;;20.67;9.68;;;;;;;21.08;39.67;101398.56;4994739;28;20036;-86
2021/04/01 11:29:57;;;;;;;23.10;9.23;;;;;;;21.02;40.29;101404.50;4997775;28;20053;-89
2021/04/01 11:32:23;;;;;;;20.40;8.98;;;;;;;20.85;39.42;101406.09;4994788;28;20488;-88
2021/04/01 11:34:51;;;;;;;19.90;9.32;;;;;;;20.43;40.37;101399.31;4993733;28;20057;-88
2021/04/01 11:37:23;;;;;;;16.00;8.70;;;;;;;20.12;41.72;101407.53;4993377;28;20049;-89
2021/04/01 11:39:55;;;;;;;26.33;9.15;;;;;;;20.18;42.17;101411.44;4994609;28;20030;-89
2021/04/01 11:42:20;;;;;;;20.85;8.77;;;;;;;19.91;42.27;101409.53;4994471;28;20030;-86
2021/04/01 11:44:46;;;;;;;20.80;8.35;;;;;;;20.07;41.87;101409.78;4994453;28;20489;-86
2021/04/01 11:47:23;;;;;;;23.58;9.18;;;;;;;20.19;42.51;101421.97;4994413;28;20420;-86
2021/04/01 11:49:51;;;;;;;22.38;9.15;;;;;;;20.31;41.23;101421.81;4994551;28;20026;-85
2021/04/01 11:52:19;;;;;;;20.73;8.65;;;;;;;20.30;41.17;101421.00;4994479;28;20476;-85
2021/04/01 11:54:46;;;;;;;29.10;9.75;;;;;;;19.24;43.73;101427.91;4994001;28;20037;-86
2021/04/01 11:57:19;;;;;;;21.15;8.95;;;;;;;19.53;42.68;101433.31;5005515;28;20176;-85
2021/04/01 11:59:57;;;;;;;17.60;8.30;;;;;;;19.92;41.98;101443.19;5006235;28;20187;-86
2021/04/01 12:02:24;;;;;;;27.83;9.48;;;;;;;19.37;42.60;101440.97;4983227;28;20035;-86
2021/04/01 12:04:53;;;;;;;22.08;8.75;;;;;;;19.05;42.68;101438.47;4990069;28;20121;-86
2021/04/01 12:07:19;;;;;;;21.95;9.85;;;;;;;18.74;43.80;101430.47;4975695;28;20098;-86
2021/04/01 12:09:47;;;;;;;21.17;9.50;;;;;;;18.55;44.97;101437.38;4974780;28;20110;-89
2021/04/01 12:12:12;;;;;;;24.08;9.25;;;;;;;19.41;42.78;101418.41;4974423;28;20030;-89
2021/04/01 12:14:39;;;;;;;30.25;9.48;;;;;;;19.80;42.00;101408.66;4974350;28;20031;-87
2021/04/01 12:17:06;;;;;;;26.15;10.48;;;;;;;19.83;41.83;101406.69;4989611;28;20027;-86
2021/04/01 12:19:32;;;;;;;22.05;8.90;;;;;;;20.06;41.60;101405.41;4992299;28;20503;-89
2021/04/01 12:22:04;;;;;;;22.80;8.98;;;;;;;20.10;41.13;101413.97;4993775;28;20030;-88
2021/04/01 12:24:29;;;;;;;22.38;8.50;;;;;;;19.33;42.18;101400.47;4993978;28;20042;-89
2021/04/01 12:26:58;;;;;;;18.23;7.93;;;;;;;20.40;40.49;101410.31;4974468;28;20031;-88
2021/04/01 12:29:24;;;;;;;16.70;7.82;;;;;;;20.62;40.53;101408.28;4971808;28;20528;-87
2021/04/01 12:31:55;;;;;;;21.52;8.13;;;;;;;20.31;40.52;101421.81;4974514;28;20107;-87
2021/04/01 12:34:29;;;;;;;16.58;7.57;;;;;;;20.66;41.02;101420.38;4974168;28;20081;-87
2021/04/01 12:36:56;;;;;;;20.50;7.50;;;;;;;20.53;39.61;101409.97;4974435;28;20031;-87
2021/04/01 12:39:33;;;;;;;20.52;7.32;;;;;;;20.41;40.21;101427.97;4976397;28;20023;-93
2021/04/01 12:41:59;;;;;;;19.58;8.05;;;;;;;19.96;40.94;101421.44;4977404;28;20432;-90
2021/04/01 12:44:41;;;;;;;18.13;6.70;;;;;;;20.46;41.38;101411.53;4974526;28;20511;-89
2021/04/01 12:47:07;;;;;;;13.30;6.63;;;;;;;20.03;41.28;101426.22;4973016;28;20023;-90
2021/04/01 12:49:37;;;;;;;16.80;6.55;;;;;;;19.89;41.25;101414.16;4974559;28;20065;-90
2021/04/01 12:52:04;;;;;;;17.38;6.57;;;;;;;20.14;40.87;101410.91;4973026;28;20076;-90
2021/04/01 12:54:35;;;;;;;15.80;6.70;;;;;;;19.77;41.17;101416.13;4980526;28;20629;-91
2021/04/01 12:57:07;;;;;;;15.23;5.87;;;;;;;20.29;40.11;101405.13;4980469;28;20062;-92